createdAt,value
2022-11-02T00:01:46.336Z,14.70
2022-11-02T00:06:49.965Z,14.70
2022-11-02T00:11:53.626Z,14.70
2022-11-02T00:45:54.754Z,14.60
2022-11-02T00:50:59.110Z,14.60
2022-11-02T00:56:05.977Z,14.60
2022-11-02T01:01:11.225Z,14.50
2022-11-02T01:06:16.799Z,14.50
2022-11-02T01:11:22.172Z,14.50
2022-11-02T01:16:28.890Z,14.50
2022-11-02T01:21:32.409Z,14.40
2022-11-02T01:26:36.054Z,14.40
2022-11-02T01:31:41.034Z,14.40
2022-11-02T01:36:45.820Z,14.40
2022-11-02T01:41:52.672Z,14.30
2022-11-02T01:47:01.921Z,14.30
2022-11-02T01:52:09.493Z,14.30
2022-11-02T01:57:16.670Z,14.20
2022-11-02T02:02:28.164Z,14.10
2022-11-02T02:07:33.028Z,14.00
2022-11-02T02:12:39.269Z,13.90
2022-11-02T02:17:50.584Z,13.90
2022-11-02T02:23:20.536Z,13.90
2022-11-02T02:28:34.550Z,13.80
2022-11-02T02:33:47.538Z,13.70
2022-11-02T02:38:59.908Z,13.70
2022-11-02T02:44:08.850Z,13.70
2022-11-02T02:49:20.170Z,13.70
2022-11-02T02:54:27.231Z,13.70
2022-11-02T02:59:33.997Z,13.60
2022-11-02T03:04:37.829Z,13.60
2022-11-02T03:09:46.395Z,13.60
2022-11-02T03:15:05.163Z,13.60
2022-11-02T03:20:22.874Z,13.60
2022-11-02T03:25:31.660Z,13.60
2022-11-02T03:30:45.896Z,13.60
2022-11-02T03:35:58.059Z,13.70
2022-11-02T03:41:05.015Z,13.70
2022-11-02T03:46:12.014Z,13.70
2022-11-02T03:51:21.004Z,13.70
2022-11-02T03:56:31.075Z,13.60
2022-11-02T04:01:43.045Z,13.70
2022-11-02T04:06:49.328Z,13.70
2022-11-02T04:12:11.949Z,13.60
2022-11-02T04:17:34.694Z,13.60
2022-11-02T04:22:59.636Z,13.60
2022-11-02T04:28:08.867Z,13.60
2022-11-02T04:33:34.683Z,13.60
2022-11-02T04:38:56.580Z,13.60
2022-11-02T04:44:08.862Z,13.60
2022-11-02T04:49:15.462Z,13.60
2022-11-02T04:54:19.308Z,13.60
2022-11-02T04:59:26.954Z,13.60
2022-11-02T05:04:32.273Z,13.60
2022-11-02T05:09:36.083Z,13.60
2022-11-02T05:14:41.754Z,13.50
2022-11-02T05:19:47.049Z,13.50
2022-11-02T05:24:50.786Z,13.50
2022-11-02T05:29:55.020Z,13.50
2022-11-02T05:35:01.083Z,13.40
2022-11-02T05:40:08.727Z,13.40
2022-11-02T05:45:13.689Z,13.40
2022-11-02T05:50:18.884Z,13.40
2022-11-02T05:55:22.909Z,13.40
2022-11-02T06:00:26.560Z,13.30
2022-11-02T06:05:31.686Z,13.20
2022-11-02T06:10:35.426Z,13.20
2022-11-02T06:15:39.049Z,13.10
2022-11-02T06:20:44.143Z,13.10
2022-11-02T06:25:53.190Z,13.10
2022-11-02T06:30:57.197Z,13.10
2022-11-02T06:36:02.281Z,12.90
2022-11-02T06:41:06.868Z,12.90
2022-11-02T06:46:13.191Z,12.90
2022-11-02T06:51:18.270Z,12.90
2022-11-02T06:56:21.873Z,12.80
2022-11-02T07:01:25.578Z,12.80
2022-11-02T07:06:30.667Z,12.80
2022-11-02T07:11:34.252Z,12.80
2022-11-02T07:16:38.011Z,12.80
2022-11-02T07:21:46.568Z,12.80
2022-11-02T07:26:51.887Z,12.80
2022-11-02T07:31:55.874Z,12.80
2022-11-02T07:37:00.948Z,12.70
2022-11-02T07:47:13.488Z,12.70
2022-11-02T07:52:18.618Z,12.70
2022-11-02T07:57:22.292Z,12.70
2022-11-02T08:02:26.174Z,12.70
2022-11-02T08:07:31.264Z,12.70
2022-11-02T08:12:35.133Z,12.70
2022-11-02T08:17:38.768Z,12.80
2022-11-02T08:22:43.768Z,12.80
2022-11-02T08:27:47.452Z,12.80
2022-11-02T08:32:56.324Z,12.80
2022-11-02T08:38:02.443Z,12.90
2022-11-02T08:43:08.330Z,12.90
2022-11-02T08:48:11.985Z,13.10
2022-11-02T08:53:17.145Z,13.60
2022-11-02T08:58:20.813Z,14.30
2022-11-02T09:03:27.152Z,15.00
2022-11-02T09:08:33.347Z,15.40
2022-11-02T09:13:38.619Z,15.50
2022-11-02T09:18:42.352Z,15.60
2022-11-02T09:23:48.494Z,15.60
2022-11-02T09:28:52.171Z,15.70
2022-11-02T09:33:55.824Z,16.00
2022-11-02T09:39:00.791Z,16.40
2022-11-02T09:44:10.214Z,16.50
2022-11-02T09:49:17.443Z,16.60
2022-11-02T09:54:24.577Z,16.70
2022-11-02T09:59:28.615Z,16.60
2022-11-02T10:04:52.439Z,16.40
2022-11-02T10:10:00.794Z,16.20
2022-11-02T10:15:09.960Z,16.10
2022-11-02T10:20:23.793Z,16.00
2022-11-02T10:25:29.002Z,15.90
2022-11-02T10:30:33.969Z,15.80
2022-11-02T10:36:12.558Z,15.60
2022-11-02T10:41:34.065Z,15.50
2022-11-02T10:46:50.228Z,15.30
2022-11-02T10:51:53.906Z,15.20
2022-11-02T10:57:00.202Z,15.20
2022-11-02T11:02:13.525Z,15.20
2022-11-02T11:07:22.230Z,15.10
2022-11-02T11:12:33.017Z,15.10
2022-11-02T11:23:16.700Z,15.00
2022-11-02T11:28:26.145Z,15.00
2022-11-02T11:33:31.349Z,15.00
2022-11-02T11:38:35.188Z,15.00
2022-11-02T11:43:41.703Z,15.10
2022-11-02T11:48:49.794Z,15.20
2022-11-02T11:54:18.743Z,15.30
2022-11-02T11:59:29.698Z,15.40
2022-11-02T12:04:37.559Z,15.40
2022-11-02T12:09:51.249Z,15.60
2022-11-02T12:15:10.224Z,15.70
2022-11-02T12:20:21.075Z,15.80
2022-11-02T12:25:41.504Z,16.20
2022-11-02T12:30:59.077Z,16.40
2022-11-02T12:36:27.208Z,16.60
2022-11-02T12:41:42.121Z,16.80
2022-11-02T12:46:59.112Z,16.80
2022-11-02T12:52:07.583Z,16.80
2022-11-02T12:57:15.552Z,16.60
2022-11-02T13:02:25.432Z,16.50
2022-11-02T13:07:34.427Z,16.40
2022-11-02T13:12:38.818Z,16.30
2022-11-02T13:17:47.107Z,16.20
2022-11-02T13:22:57.594Z,16.10
2022-11-02T13:28:06.112Z,16.00
2022-11-02T13:33:18.517Z,15.90
2022-11-02T13:38:30.740Z,15.90
2022-11-02T13:43:57.760Z,15.90
2022-11-02T13:49:04.638Z,15.80
2022-11-02T13:54:14.694Z,15.80
2022-11-02T13:59:22.609Z,15.70
2022-11-02T14:04:30.729Z,15.70
2022-11-02T14:09:38.741Z,15.60
2022-11-02T14:14:42.464Z,15.60
2022-11-02T14:19:56.404Z,15.60
2022-11-02T14:25:16.675Z,15.60
2022-11-02T14:30:48.851Z,15.60
2022-11-02T14:36:01.322Z,15.50
2022-11-02T14:41:25.308Z,15.50
2022-11-02T14:46:49.155Z,15.50
2022-11-02T14:52:04.548Z,15.40
2022-11-02T14:57:20.349Z,15.40
2022-11-02T15:02:28.601Z,15.40
2022-11-02T15:07:38.429Z,15.30
2022-11-02T15:12:43.719Z,15.30
2022-11-02T15:17:59.613Z,15.30
2022-11-02T15:23:31.256Z,15.20
2022-11-02T15:28:36.290Z,15.20
2022-11-02T15:33:43.932Z,15.10
2022-11-02T15:38:52.286Z,15.10
2022-11-02T15:44:27.438Z,15.00
2022-11-02T15:49:48.982Z,15.00
2022-11-02T15:55:10.830Z,14.90
2022-11-02T16:00:19.360Z,14.80
2022-11-02T16:05:25.547Z,14.80
2022-11-02T16:10:34.580Z,14.70
2022-11-02T16:15:42.288Z,14.70
2022-11-02T16:20:46.817Z,14.60
2022-11-02T16:25:54.356Z,14.60
2022-11-02T16:31:08.110Z,14.60
2022-11-02T16:36:18.571Z,14.50
2022-11-02T16:41:25.869Z,14.50
2022-11-02T16:46:32.073Z,14.40
2022-11-02T16:51:35.818Z,14.40
2022-11-02T16:56:40.920Z,14.40
2022-11-02T17:01:45.582Z,14.30
2022-11-02T17:06:51.555Z,14.30
2022-11-02T17:11:59.046Z,14.30
2022-11-02T17:17:06.042Z,14.20
2022-11-02T17:22:11.540Z,14.20
2022-11-02T17:27:25.907Z,14.20
2022-11-02T17:32:29.926Z,14.10
2022-11-02T17:37:33.955Z,14.10
2022-11-02T17:42:56.514Z,14.00
2022-11-02T17:48:02.153Z,14.00
2022-11-02T17:53:07.326Z,14.00
2022-11-02T17:58:13.814Z,14.00
2022-11-02T18:03:21.701Z,13.90
2022-11-02T18:08:28.106Z,13.90
2022-11-02T18:13:33.169Z,13.90
2022-11-02T18:18:41.388Z,13.90
2022-11-02T18:23:45.663Z,13.90
2022-11-02T18:28:50.824Z,13.80
2022-11-02T18:33:56.540Z,13.90
2022-11-02T18:39:00.171Z,13.80
2022-11-02T18:44:13.520Z,13.80
2022-11-02T18:49:18.739Z,13.80
2022-11-02T18:54:22.484Z,13.70
2022-11-02T18:59:27.707Z,13.70
2022-11-02T19:04:31.451Z,13.70
2022-11-02T19:09:36.855Z,13.70
2022-11-02T19:14:43.604Z,13.70
2022-11-02T19:19:48.476Z,13.60
2022-11-02T19:24:52.431Z,13.60
2022-11-02T19:29:57.453Z,13.60
2022-11-02T19:35:01.143Z,13.60
2022-11-02T19:40:05.495Z,13.60
2022-11-02T19:45:16.652Z,13.60
2022-11-02T19:50:22.782Z,13.60
2022-11-02T19:55:29.494Z,13.60
2022-11-02T20:00:34.649Z,13.60
2022-11-02T20:05:38.326Z,13.60
2022-11-02T20:10:42.261Z,13.50
2022-11-02T20:15:47.278Z,13.50
2022-11-02T20:20:52.492Z,13.50
2022-11-02T20:26:00.777Z,13.50
2022-11-02T20:31:09.438Z,13.50
2022-11-02T20:36:13.264Z,13.50
2022-11-02T20:41:18.977Z,13.50
2022-11-02T20:46:42.224Z,13.50
2022-11-02T20:51:46.531Z,13.50
2022-11-02T20:56:50.673Z,13.40
2022-11-02T21:01:55.996Z,13.40
2022-11-02T21:06:59.804Z,13.40
2022-11-02T21:12:20.947Z,13.40
2022-11-02T21:17:27.171Z,13.30
2022-11-02T21:22:30.883Z,13.30
2022-11-02T21:27:34.540Z,13.30
2022-11-02T21:32:39.559Z,13.40
2022-11-02T21:37:43.368Z,13.30
2022-11-02T21:42:47.071Z,13.30
2022-11-02T21:47:52.494Z,13.30
2022-11-02T21:52:56.215Z,13.30
2022-11-02T21:57:59.928Z,13.30
2022-11-02T22:03:05.218Z,13.30
2022-11-02T22:08:26.318Z,13.30
2022-11-02T22:13:35.675Z,13.20
2022-11-02T22:18:40.697Z,13.30
2022-11-02T22:23:46.247Z,13.30
2022-11-02T22:28:50.999Z,13.20
2022-11-02T22:33:57.611Z,13.20
2022-11-02T22:39:02.897Z,13.20
2022-11-02T22:44:08.158Z,13.20
2022-11-02T22:49:15.328Z,13.20
2022-11-02T22:54:20.864Z,13.20
2022-11-02T22:59:24.663Z,13.20
2022-11-02T23:04:29.689Z,13.20
2022-11-02T23:09:33.333Z,13.20
2022-11-02T23:14:36.988Z,13.20
2022-11-02T23:19:41.994Z,13.10
2022-11-02T23:25:04.899Z,13.10
2022-11-02T23:30:27.068Z,13.10
2022-11-02T23:35:49.426Z,13.10
2022-11-02T23:40:54.926Z,13.10
2022-11-02T23:45:58.976Z,13.10
2022-11-02T23:51:22.038Z,13.10
2022-11-02T23:56:39.542Z,13.10
